»·PEaware :: UPS821 KSMF-KPHX

UPS821 :: KSMF-KPHX

FLIGHT INFORMATION

Flight Status: Arrived
Operator:
United Parcel Service
More flights by this operator :: More flights under this callsign
Pilot: Andre N. (13929)
Aircraft: Unknown
(B748)
More flights by this aircraft type
Origin: KSMF Sacramento Intl
United States
Destination: KPHX Phoenix Sky Harbor Intl
United States
More flights between these airports :: More routes between these airports
Route: +FTHIL2 FRA EHF PMD J65 BLH HYDRR1
File this flight plan on PilotEdge
Remarks:
Altitude:
(Current/Filed)
33,000ft
Speed:
(Current/Filed)
450kts
Departed: 01-May-18 05:37 PM
Arrived: 01-May-18 07:17 PM
Distance/Time
Traveled:
561nm/1:40
Distance/Time
To Go:
Arrived

Flight Plot

Page will automatically refresh every two minutes.

Flight plan parsing failed; only flown route is shown


Map Options




Map Legend


Flown Route
Filed Route
Departure Airport
Arrival Airport
Navaid (VOR, NDB)
Fix

Horizontal Profiles

Position Reports

Time Latitude Longitude Heading Altitude Ground
Speed
01-May-18 17:06 38.685990 -121.597347 89 35ft 0kts
01-May-18 17:07 38.685990 -121.597347 89 35ft 0kts
01-May-18 17:08 38.685990 -121.597347 89 35ft 0kts
01-May-18 17:09 38.685990 -121.597347 89 35ft 0kts
01-May-18 17:10 38.685990 -121.597347 89 35ft 0kts
01-May-18 17:11 38.685990 -121.597347 89 35ft 0kts
01-May-18 17:12 38.685990 -121.597347 89 35ft 0kts
01-May-18 17:13 38.685990 -121.597347 89 35ft 0kts
01-May-18 17:14 38.685990 -121.597347 89 35ft 0kts
01-May-18 17:15 38.685990 -121.597347 89 35ft 0kts
01-May-18 17:16 38.685990 -121.597347 89 35ft 0kts
01-May-18 17:17 38.685990 -121.597347 89 35ft 0kts
01-May-18 17:18 38.685990 -121.597347 89 35ft 0kts
01-May-18 17:19 38.685990 -121.597347 89 35ft 0kts
01-May-18 17:20 38.685990 -121.597347 89 35ft 0kts
01-May-18 17:21 38.685990 -121.597347 89 35ft 0kts
01-May-18 17:22 38.685990 -121.597347 89 35ft 0kts
01-May-18 17:23 38.685990 -121.597347 89 35ft 0kts
01-May-18 17:24 38.685990 -121.597347 89 35ft 0kts
01-May-18 17:25 38.685990 -121.597347 89 35ft 0kts
01-May-18 17:25 38.685990 -121.597347 89 35ft 0kts
01-May-18 17:26 38.685990 -121.597347 89 35ft 0kts
01-May-18 17:27 38.685990 -121.597371 89 36ft 1kts
01-May-18 17:28 38.685922 -121.598133 82 36ft 2kts
01-May-18 17:29 38.686113 -121.598801 166 36ft 2kts
01-May-18 17:30 38.686586 -121.598797 179 35ft 0kts
01-May-18 17:31 38.686586 -121.598797 179 35ft 0kts
01-May-18 17:32 38.686586 -121.598797 179 35ft 0kts
01-May-18 17:33 38.684335 -121.598863 194 35ft 13kts
01-May-18 17:34 38.683876 -121.599615 263 35ft 0kts
01-May-18 17:35 38.684083 -121.601186 319 35ft 14kts
01-May-18 17:36 38.701590 -121.601050 359 144ft 163kts
01-May-18 17:37 38.740249 -121.583418 75 1956ft 192kts
01-May-18 17:38 38.725654 -121.522609 165 3487ft 216kts
01-May-18 17:39 38.677267 -121.479765 124 5517ft 225kts
01-May-18 17:40 38.639300 -121.414009 123 7897ft 237kts
01-May-18 17:41 38.600730 -121.347022 123 10302ft 249kts
01-May-18 17:42 38.556830 -121.269803 124 11387ft 327kts
01-May-18 17:43 38.501694 -121.174218 123 14049ft 363kts
01-May-18 17:44 38.440342 -121.068580 122 17237ft 383kts
01-May-18 17:45 38.376519 -120.959240 123 20071ft 401kts
01-May-18 17:46 38.310335 -120.846260 122 22572ft 417kts
01-May-18 17:47 38.241017 -120.728337 122 24858ft 433kts
01-May-18 17:48 38.167810 -120.604240 122 26963ft 447kts
01-May-18 17:49 38.092469 -120.477069 122 28872ft 462kts
01-May-18 17:50 38.018298 -120.348873 120 30611ft 473kts
01-May-18 17:51 37.942346 -120.217528 130 31054ft 487kts
01-May-18 17:52 37.831483 -120.120907 148 32573ft 509kts
01-May-18 17:53 37.704768 -120.036410 147 33036ft 515kts
01-May-18 17:54 37.582187 -119.947650 145 33039ft 514kts
01-May-18 17:55 37.460027 -119.856302 145 33061ft 513kts
01-May-18 17:56 37.337236 -119.765727 145 33065ft 513kts
01-May-18 17:57 37.214273 -119.675733 145 33071ft 514kts
01-May-18 17:58 37.089748 -119.589220 154 33083ft 517kts
01-May-18 17:59 36.951806 -119.540773 167 33079ft 516kts
01-May-18 18:00 36.819435 -119.506299 166 33070ft 516kts
01-May-18 18:01 36.680719 -119.464916 164 33071ft 516kts
01-May-18 18:02 36.543600 -119.421719 164 33072ft 516kts
01-May-18 18:03 36.404990 -119.378636 164 33065ft 516kts
01-May-18 18:04 36.267255 -119.336087 165 33066ft 516kts
01-May-18 18:05 36.128448 -119.292202 165 33068ft 516kts
01-May-18 18:06 35.989723 -119.249569 165 33077ft 516kts
01-May-18 18:07 35.857572 -119.209557 165 33058ft 516kts
01-May-18 18:08 35.742675 -119.175105 165 33056ft 516kts
01-May-18 18:09 35.603602 -119.133127 165 33051ft 516kts
01-May-18 18:10 35.468417 -119.080135 146 33077ft 513kts
01-May-18 18:11 35.366610 -118.966519 129 33048ft 503kts
01-May-18 18:12 35.275617 -118.841784 132 33045ft 496kts
01-May-18 18:13 35.180934 -118.724163 134 33059ft 492kts
01-May-18 18:14 35.083554 -118.607176 134 33086ft 493kts
01-May-18 18:15 35.006400 -118.514064 134 33091ft 494kts
01-May-18 18:16 34.909454 -118.396948 135 33082ft 496kts
01-May-18 18:17 34.840050 -118.313968 137 33063ft 495kts
01-May-18 18:18 34.760752 -118.218803 137 33059ft 495kts
01-May-18 18:19 34.663770 -118.102465 137 33063ft 495kts
01-May-18 18:20 34.592677 -117.962018 111 33063ft 499kts
01-May-18 18:21 34.551005 -117.803391 107 33065ft 499kts
01-May-18 18:22 34.508556 -117.650550 110 33054ft 499kts
01-May-18 18:23 34.473365 -117.534797 110 33038ft 499kts
01-May-18 18:24 34.434974 -117.409628 110 33038ft 499kts
01-May-18 18:25 34.395407 -117.279158 110 33062ft 499kts
01-May-18 18:26 34.355558 -117.147339 110 33128ft 498kts
01-May-18 18:27 34.313438 -117.010423 112 33122ft 504kts
01-May-18 18:28 34.270906 -116.871772 114 33117ft 499kts
01-May-18 18:29 34.225708 -116.725372 115 33075ft 499kts
01-May-18 18:30 34.176944 -116.568757 114 33023ft 500kts
01-May-18 18:31 34.128114 -116.412641 115 33028ft 500kts
01-May-18 18:32 34.081721 -116.264357 115 33027ft 499kts
01-May-18 18:33 34.033490 -116.110278 115 33023ft 499kts
01-May-18 18:34 33.983915 -115.954050 115 33000ft 499kts
01-May-18 18:35 33.934258 -115.798651 115 32979ft 500kts
01-May-18 18:36 33.890749 -115.663249 115 32977ft 500kts
01-May-18 18:37 33.852010 -115.546058 115 32978ft 499kts
01-May-18 18:38 33.802013 -115.391555 115 32981ft 499kts
01-May-18 18:39 33.752038 -115.237714 115 32985ft 499kts
01-May-18 18:40 33.701584 -115.082283 118 32991ft 501kts
01-May-18 18:41 33.651197 -114.928450 122 32992ft 494kts
01-May-18 18:42 33.600654 -114.775527 121 32994ft 495kts
01-May-18 18:43 33.563683 -114.614113 111 32996ft 509kts
01-May-18 18:44 33.534824 -114.448621 111 32997ft 508kts
01-May-18 18:45 33.504025 -114.288945 113 32985ft 506kts
01-May-18 18:46 33.471344 -114.125010 113 32152ft 514kts
01-May-18 18:47 33.439455 -113.964565 112 28301ft 484kts
01-May-18 18:48 33.411490 -113.823106 111 24697ft 409kts
01-May-18 18:49 33.391000 -113.722808 111 22999ft 396kts
01-May-18 18:50 33.364686 -113.595092 111 22045ft 395kts
01-May-18 18:51 33.339096 -113.469571 110 20841ft 385kts
01-May-18 18:52 33.317060 -113.345597 108 19644ft 379kts
01-May-18 18:53 33.298454 -113.234415 107 18445ft 364kts
01-May-18 18:54 33.281725 -113.120213 105 16991ft 339kts
01-May-18 18:55 33.274511 -113.012039 93 15541ft 320kts
01-May-18 18:56 33.278421 -112.905712 92 14135ft 318kts
01-May-18 18:57 33.282664 -112.801961 88 13012ft 309kts
01-May-18 18:58 33.292131 -112.699025 87 12694ft 312kts
01-May-18 19:00 33.301890 -112.596719 87 12186ft 308kts
01-May-18 19:01 33.311261 -112.495452 86 11683ft 306kts
01-May-18 19:02 33.320445 -112.394278 86 11182ft 307kts
01-May-18 19:03 33.329594 -112.294142 86 10472ft 295kts
01-May-18 19:04 33.337931 -112.203446 87 9655ft 254kts
01-May-18 19:05 33.345265 -112.120175 87 9038ft 253kts
01-May-18 19:06 33.347429 -112.036782 89 8241ft 250kts
01-May-18 19:07 33.351346 -111.953883 88 7241ft 247kts
01-May-18 19:08 33.354699 -111.872858 88 7001ft 236kts
01-May-18 19:09 33.357895 -111.794749 88 6867ft 240kts
01-May-18 19:10 33.365290 -111.722049 44 5837ft 206kts
01-May-18 19:11 33.411711 -111.737518 302 5135ft 192kts
01-May-18 19:12 33.428103 -111.793147 269 4335ft 168kts
01-May-18 19:13 33.428507 -111.847542 269 3577ft 148kts
01-May-18 19:14 33.428687 -111.898074 270 2821ft 152kts
01-May-18 19:15 33.428784 -111.948535 270 2007ft 151kts
01-May-18 19:16 33.428837 -111.998309 269 1210ft 147kts
01-May-18 19:17 33.429845 -112.022652 280 1124ft 20kts
01-May-18 19:18 33.429930 -112.023886 272 1124ft 0kts
01-May-18 19:19 33.430413 -112.025320 335 1124ft 15kts
01-May-18 19:20 33.432874 -112.022204 89 1124ft 15kts
01-May-18 19:21 33.433806 -112.019307 179 1124ft 0kts

Navigation Log

Ident Type
Flight plan parsing failed, navigation log unavailable